createdAt,value
2023-05-12T00:01:14.282Z,14.02
2023-05-12T00:04:16.912Z,14.00
2023-05-12T00:07:20.995Z,14.00
2023-05-12T00:10:23.663Z,13.98
2023-05-12T00:13:26.951Z,13.95
2023-05-12T00:16:29.685Z,13.90
2023-05-12T00:19:32.359Z,13.86
2023-05-12T00:22:36.271Z,13.81
2023-05-12T00:25:38.939Z,13.77
2023-05-12T00:28:41.640Z,13.83
2023-05-12T00:31:44.277Z,13.86
2023-05-12T00:34:46.878Z,13.95
2023-05-12T00:37:50.762Z,14.02
2023-05-12T00:40:53.313Z,13.99
2023-05-12T00:43:56.127Z,14.00
2023-05-12T00:46:59.070Z,13.98
2023-05-12T00:50:01.644Z,13.95
2023-05-12T00:53:05.464Z,13.94
2023-05-12T00:56:08.323Z,13.92
2023-05-12T00:59:10.933Z,13.92
2023-05-12T01:02:13.496Z,13.90
2023-05-12T01:05:16.599Z,13.92
2023-05-12T01:08:21.055Z,13.89
2023-05-12T01:11:23.557Z,13.89
2023-05-12T01:14:26.984Z,13.92
2023-05-12T01:17:30.555Z,13.88
2023-05-12T01:20:35.884Z,13.87
2023-05-12T01:23:44.244Z,13.83
2023-05-12T01:26:48.159Z,13.76
2023-05-12T01:29:51.200Z,13.73
2023-05-12T01:32:54.583Z,13.70
2023-05-12T01:35:57.107Z,13.67
2023-05-12T01:38:59.702Z,13.66
2023-05-12T01:42:03.949Z,13.71
2023-05-12T01:45:07.387Z,13.77
2023-05-12T01:48:10.133Z,13.75
2023-05-12T01:51:12.818Z,13.73
2023-05-12T01:54:15.359Z,13.72
2023-05-12T01:57:19.176Z,13.66
2023-05-12T02:00:22.086Z,13.65
2023-05-12T02:03:24.952Z,13.66
2023-05-12T02:06:28.443Z,13.61
2023-05-12T02:09:31.097Z,13.57
2023-05-12T02:12:35.202Z,13.58
2023-05-12T02:15:37.706Z,13.58
2023-05-12T02:18:40.549Z,13.58
2023-05-12T02:21:46.015Z,13.59
2023-05-12T02:24:48.629Z,13.57
2023-05-12T02:27:52.495Z,13.50
2023-05-12T02:30:55.095Z,13.44
2023-05-12T02:33:58.787Z,13.39
2023-05-12T02:37:01.269Z,13.40
2023-05-12T02:40:04.729Z,13.45
2023-05-12T02:43:08.603Z,13.54
2023-05-12T02:46:11.247Z,13.56
2023-05-12T02:49:13.853Z,13.58
2023-05-12T02:52:16.533Z,13.54
2023-05-12T02:55:19.179Z,13.52
2023-05-12T02:58:23.288Z,13.59
2023-05-12T03:01:25.857Z,13.61
2023-05-12T03:04:28.432Z,13.59
2023-05-12T03:07:31.231Z,13.54
2023-05-12T03:10:34.045Z,13.55
2023-05-12T03:13:37.998Z,13.58
2023-05-12T03:16:40.641Z,13.59
2023-05-12T03:19:43.546Z,13.60
2023-05-12T03:22:46.189Z,13.54
2023-05-12T03:25:48.747Z,13.53
2023-05-12T03:28:52.633Z,13.53
2023-05-12T03:31:55.422Z,13.54
2023-05-12T03:34:58.335Z,13.55
2023-05-12T03:38:00.868Z,13.58
2023-05-12T03:41:06.823Z,13.59
2023-05-12T03:44:11.161Z,13.57
2023-05-12T03:47:13.953Z,13.57
2023-05-12T03:50:16.889Z,13.59
2023-05-12T03:53:19.446Z,13.59
2023-05-12T03:56:22.088Z,13.61
2023-05-12T03:59:25.986Z,13.60
2023-05-12T04:02:28.669Z,13.67
2023-05-12T04:05:31.313Z,13.68
2023-05-12T04:08:33.984Z,13.72
2023-05-12T04:11:36.891Z,13.75
2023-05-12T04:14:43.093Z,13.76
2023-05-12T04:17:46.238Z,13.75
2023-05-12T04:20:48.797Z,13.74
2023-05-12T04:23:52.411Z,13.67
2023-05-12T04:26:55.020Z,13.64
2023-05-12T04:29:58.933Z,13.68
2023-05-12T04:33:01.744Z,13.67
2023-05-12T04:36:05.687Z,13.80
2023-05-12T04:39:08.175Z,13.89
2023-05-12T04:42:10.714Z,13.95
2023-05-12T04:45:14.636Z,13.95
2023-05-12T04:48:17.227Z,13.95
2023-05-12T04:51:19.807Z,14.03
2023-05-12T04:54:23.607Z,13.99
2023-05-12T04:57:26.078Z,14.14
2023-05-12T05:00:29.919Z,14.21
2023-05-12T05:03:32.560Z,14.24
2023-05-12T05:06:35.125Z,14.28
2023-05-12T05:09:37.635Z,14.27
2023-05-12T05:12:40.149Z,14.37
2023-05-12T05:15:50.549Z,14.46
2023-05-12T05:18:53.212Z,14.46
2023-05-12T05:21:55.798Z,14.55
2023-05-12T05:24:58.506Z,14.60
2023-05-12T05:28:01.139Z,14.59
2023-05-12T05:31:05.449Z,14.65
2023-05-12T05:34:08.002Z,14.77
2023-05-12T05:37:10.700Z,14.93
2023-05-12T05:40:13.266Z,15.00
2023-05-12T05:43:15.852Z,15.08
2023-05-12T05:46:19.711Z,15.08
2023-05-12T05:49:23.061Z,15.05
2023-05-12T05:52:25.995Z,15.13
2023-05-12T05:55:28.545Z,15.16
2023-05-12T05:58:31.035Z,15.23
2023-05-12T06:01:34.890Z,15.29
2023-05-12T06:04:37.466Z,15.40
2023-05-12T06:07:39.979Z,15.31
2023-05-12T06:10:42.540Z,15.34
2023-05-12T06:13:45.089Z,15.48
2023-05-12T06:16:49.006Z,15.64
2023-05-12T06:19:51.525Z,15.63
2023-05-12T06:22:54.052Z,15.69
2023-05-12T06:25:56.626Z,15.77
2023-05-12T06:28:59.093Z,15.80
2023-05-12T06:32:03.161Z,15.99
2023-05-12T06:35:06.666Z,16.08
2023-05-12T06:38:09.043Z,16.23
2023-05-12T06:41:11.587Z,16.25
2023-05-12T06:44:14.062Z,16.41
2023-05-12T06:47:17.950Z,16.52
2023-05-12T06:50:20.737Z,16.71
2023-05-12T06:53:25.513Z,16.88
2023-05-12T06:56:29.275Z,16.99
2023-05-12T06:59:31.810Z,17.33
2023-05-12T07:02:35.727Z,17.51
2023-05-12T07:05:38.248Z,17.74
2023-05-12T07:08:40.880Z,17.80
2023-05-12T07:11:43.471Z,17.78
2023-05-12T07:14:45.969Z,18.11
2023-05-12T07:17:49.935Z,18.45
2023-05-12T07:20:53.376Z,18.48
2023-05-12T07:23:55.730Z,18.66
2023-05-12T07:26:58.240Z,18.91
2023-05-12T07:30:00.969Z,19.11
2023-05-12T07:33:04.959Z,19.34
2023-05-12T07:36:09.115Z,19.56
2023-05-12T07:39:12.865Z,19.47
2023-05-12T07:42:15.434Z,19.57
2023-05-12T07:45:22.880Z,19.68
2023-05-12T07:48:26.846Z,19.88
2023-05-12T07:51:29.513Z,19.87
2023-05-12T07:54:32.235Z,19.83
2023-05-12T07:57:34.843Z,20.09
2023-05-12T08:00:37.322Z,20.20
2023-05-12T08:03:41.359Z,20.08
2023-05-12T08:06:44.031Z,20.35
2023-05-12T08:09:46.899Z,20.44
2023-05-12T08:12:49.357Z,21.10
2023-05-12T08:15:52.158Z,20.84
2023-05-12T08:18:56.121Z,20.68
2023-05-12T08:21:58.835Z,21.02
2023-05-12T08:25:01.848Z,21.33
2023-05-12T08:28:04.693Z,21.34
2023-05-12T08:31:07.409Z,21.37
2023-05-12T08:34:11.477Z,21.06
2023-05-12T08:37:14.440Z,21.27
2023-05-12T08:40:21.356Z,21.39
2023-05-12T08:43:26.093Z,21.29
2023-05-12T08:46:28.605Z,21.37
2023-05-12T08:49:33.528Z,21.29
2023-05-12T08:52:36.668Z,21.52
2023-05-12T08:55:40.769Z,21.90
2023-05-12T08:58:44.750Z,22.11
2023-05-12T09:01:47.563Z,22.45
2023-05-12T09:04:51.891Z,22.62
2023-05-12T09:07:55.833Z,22.54
2023-05-12T09:10:59.334Z,22.54
2023-05-12T09:14:03.929Z,22.52
2023-05-12T09:17:06.544Z,22.39
2023-05-12T09:20:23.810Z,21.85
2023-05-12T09:23:33.217Z,21.36
2023-05-12T09:26:46.776Z,21.27
2023-05-12T09:29:58.999Z,21.35
2023-05-12T09:33:09.884Z,21.28
2023-05-12T09:36:18.092Z,21.47
2023-05-12T09:39:20.582Z,21.56
2023-05-12T09:42:24.451Z,21.53
2023-05-12T09:45:27.025Z,22.21
2023-05-12T09:48:31.129Z,22.09
2023-05-12T09:51:34.928Z,22.41
2023-05-12T09:54:40.644Z,22.92
2023-05-12T09:57:44.603Z,23.17
2023-05-12T10:03:54.585Z,22.53
2023-05-12T10:06:59.364Z,21.12
2023-05-12T10:10:04.301Z,20.22
2023-05-12T10:13:06.819Z,20.40
2023-05-12T10:16:09.588Z,20.57
2023-05-12T10:19:12.456Z,20.62
2023-05-12T10:22:17.122Z,20.93
2023-05-12T10:25:19.999Z,21.53
2023-05-12T10:28:22.822Z,22.33
2023-05-12T10:31:25.901Z,23.13
2023-05-12T10:34:31.258Z,24.25
2023-05-12T10:37:35.859Z,24.42
2023-05-12T10:40:38.467Z,23.97
2023-05-12T10:43:43.052Z,23.66
2023-05-12T10:46:45.674Z,23.43
2023-05-12T10:49:48.289Z,22.32
2023-05-12T10:52:55.485Z,21.79
2023-05-12T10:55:58.144Z,21.52
2023-05-12T10:59:17.431Z,21.38
2023-05-12T11:02:22.054Z,21.40
2023-05-12T11:05:34.832Z,21.01
2023-05-12T11:08:39.974Z,20.61
2023-05-12T11:11:45.737Z,20.36
2023-05-12T11:14:48.779Z,19.93
2023-05-12T11:17:51.883Z,19.49
2023-05-12T11:20:54.508Z,19.38
2023-05-12T11:23:58.653Z,19.13
2023-05-12T11:27:01.236Z,18.67
2023-05-12T11:30:04.448Z,18.41
2023-05-12T11:33:07.072Z,18.45
2023-05-12T11:36:11.009Z,18.46
2023-05-12T11:39:22.521Z,18.58
2023-05-12T11:42:25.948Z,18.80
2023-05-12T11:45:30.491Z,18.94
2023-05-12T11:48:34.806Z,18.93
2023-05-12T11:51:37.341Z,18.65
2023-05-12T11:54:41.327Z,18.62
2023-05-12T11:57:44.284Z,18.59
2023-05-12T12:00:47.028Z,18.65
2023-05-12T12:03:50.667Z,18.96
2023-05-12T12:06:53.262Z,19.76
2023-05-12T12:09:57.092Z,20.34
2023-05-12T12:13:00.897Z,20.86
2023-05-12T12:16:03.408Z,21.44
2023-05-12T12:19:06.062Z,22.31
2023-05-12T12:22:08.605Z,23.34
2023-05-12T12:25:12.546Z,23.20
2023-05-12T12:28:15.078Z,23.93
2023-05-12T12:31:17.957Z,24.81
2023-05-12T12:34:20.601Z,24.92
2023-05-12T12:37:23.096Z,25.07
2023-05-12T12:40:27.506Z,25.25
2023-05-12T12:43:30.125Z,24.98
2023-05-12T12:46:32.748Z,25.50
2023-05-12T12:49:35.426Z,26.33
2023-05-12T12:52:38.527Z,27.11
2023-05-12T12:55:42.345Z,27.82
2023-05-12T12:58:45.077Z,27.66
2023-05-12T13:01:48.315Z,27.21
2023-05-12T13:04:50.931Z,26.92
2023-05-12T13:07:53.516Z,26.48
2023-05-12T13:10:57.379Z,25.46
2023-05-12T13:14:02.171Z,23.97
2023-05-12T13:17:05.134Z,22.74
2023-05-12T13:20:09.086Z,21.95
2023-05-12T13:23:11.875Z,21.33
2023-05-12T13:26:15.894Z,21.11
2023-05-12T13:29:18.493Z,21.42
2023-05-12T13:32:21.729Z,21.32
2023-05-12T13:35:24.198Z,21.24
2023-05-12T13:38:27.283Z,21.15
2023-05-12T13:41:31.129Z,21.31
2023-05-12T13:44:33.639Z,21.53
2023-05-12T13:47:36.172Z,21.58
2023-05-12T13:50:38.760Z,21.89
2023-05-12T13:53:42.991Z,22.01
2023-05-12T13:56:47.210Z,22.06
2023-05-12T13:59:50.454Z,21.89
2023-05-12T14:02:52.932Z,21.68
2023-05-12T14:05:55.539Z,21.50
2023-05-12T14:08:58.000Z,21.05
2023-05-12T14:12:02.512Z,21.14
2023-05-12T14:15:21.867Z,21.40
2023-05-12T14:18:28.503Z,21.65
2023-05-12T14:21:31.162Z,21.87
2023-05-12T14:24:33.664Z,22.41
2023-05-12T14:27:37.633Z,23.33
2023-05-12T14:30:40.222Z,23.01
2023-05-12T14:33:42.837Z,23.15
2023-05-12T14:36:45.451Z,22.96
2023-05-12T14:39:48.031Z,23.11
2023-05-12T14:42:52.487Z,22.66
2023-05-12T14:45:55.330Z,23.20
2023-05-12T14:48:57.878Z,22.88
2023-05-12T14:52:00.488Z,21.81
2023-05-12T14:55:02.975Z,21.26
2023-05-12T14:58:06.941Z,20.96
2023-05-12T15:01:09.755Z,20.26
2023-05-12T15:04:12.795Z,20.19
2023-05-12T15:07:15.317Z,20.10
2023-05-12T15:10:17.971Z,20.20
2023-05-12T15:13:22.837Z,20.17
2023-05-12T15:16:28.022Z,20.32
2023-05-12T15:19:30.752Z,20.05
2023-05-12T15:22:33.243Z,19.92
2023-05-12T15:25:36.024Z,19.80
2023-05-12T15:28:39.985Z,19.73
2023-05-12T15:31:42.686Z,19.78
2023-05-12T15:34:45.368Z,19.98
2023-05-12T15:37:47.831Z,20.08
2023-05-12T15:40:51.770Z,19.94
2023-05-12T15:43:55.684Z,20.09
2023-05-12T15:46:58.402Z,20.12
2023-05-12T15:50:01.382Z,20.10
2023-05-12T15:53:04.206Z,20.18
2023-05-12T15:56:07.781Z,20.42
2023-05-12T15:59:12.472Z,20.55
2023-05-12T16:02:15.226Z,20.53
2023-05-12T16:05:18.303Z,20.53
2023-05-12T16:08:21.869Z,20.72
2023-05-12T16:11:24.416Z,20.84
2023-05-12T16:14:28.230Z,20.62
2023-05-12T16:17:30.984Z,20.58
2023-05-12T16:20:33.671Z,20.42
2023-05-12T16:23:36.192Z,20.16
2023-05-12T16:26:39.073Z,20.03
2023-05-12T16:29:45.332Z,19.88
2023-05-12T16:32:48.015Z,19.70
2023-05-12T16:35:50.631Z,19.36
2023-05-12T16:38:53.607Z,19.17
2023-05-12T16:41:56.176Z,18.87
2023-05-12T16:45:00.288Z,18.74
2023-05-12T16:48:02.896Z,18.75
2023-05-12T16:51:07.003Z,18.68
2023-05-12T16:54:09.871Z,18.77
2023-05-12T16:57:12.340Z,18.74
2023-05-12T17:00:18.222Z,18.68
2023-05-12T17:03:20.939Z,18.58
2023-05-12T17:06:23.514Z,18.60
2023-05-12T17:09:26.077Z,18.36
2023-05-12T17:12:28.584Z,18.13
2023-05-12T17:15:32.540Z,18.15
2023-05-12T17:19:13.553Z,18.11
2023-05-12T17:21:57.645Z,18.24
2023-05-12T17:25:00.318Z,18.33
2023-05-12T17:28:02.996Z,18.48
2023-05-12T17:31:07.523Z,18.54
2023-05-12T17:34:10.283Z,18.50
2023-05-12T17:37:13.174Z,18.40
2023-05-12T17:40:16.967Z,18.35
2023-05-12T17:43:19.501Z,18.35
2023-05-12T17:46:23.491Z,18.38
2023-05-12T17:49:26.121Z,18.25
2023-05-12T17:52:28.738Z,18.14
2023-05-12T17:55:31.339Z,17.96
2023-05-12T17:58:34.139Z,17.76
2023-05-12T18:01:38.149Z,17.76
2023-05-12T18:04:40.825Z,17.61
2023-05-12T18:07:43.460Z,17.55
2023-05-12T18:10:46.611Z,17.55
2023-05-12T18:13:51.009Z,17.42
2023-05-12T18:16:55.050Z,17.29
2023-05-12T18:19:57.808Z,17.31
2023-05-12T18:23:00.326Z,17.28
2023-05-12T18:26:03.244Z,17.27
2023-05-12T18:29:05.962Z,17.21
2023-05-12T18:32:10.001Z,17.07
2023-05-12T18:35:12.527Z,16.94
2023-05-12T18:38:16.095Z,16.86
2023-05-12T18:41:18.856Z,16.71
2023-05-12T18:44:21.397Z,16.60
2023-05-12T18:47:25.449Z,16.51
2023-05-12T18:50:28.130Z,16.45
2023-05-12T18:53:30.923Z,16.38
2023-05-12T18:56:33.507Z,16.28
2023-05-12T18:59:36.005Z,16.24
2023-05-12T19:02:42.233Z,16.15
2023-05-12T19:05:46.321Z,16.14
2023-05-12T19:08:49.064Z,16.11
2023-05-12T19:11:51.541Z,16.04
2023-05-12T19:14:54.196Z,16.05
2023-05-12T19:17:58.124Z,16.06
2023-05-12T19:21:00.730Z,16.03
2023-05-12T19:24:03.312Z,15.99
2023-05-12T19:27:06.292Z,15.93
2023-05-12T19:30:09.717Z,15.95
2023-05-12T19:33:14.236Z,15.90
2023-05-12T19:36:18.441Z,15.87
2023-05-12T19:39:20.968Z,15.89
2023-05-12T19:42:23.590Z,15.85
2023-05-12T19:45:26.169Z,15.81
2023-05-12T19:48:30.068Z,15.83
2023-05-12T19:51:32.915Z,15.87
2023-05-12T19:54:35.726Z,15.84
2023-05-12T19:57:38.386Z,15.79
2023-05-12T20:00:41.381Z,15.78
2023-05-12T20:03:45.546Z,15.77
2023-05-12T20:06:48.082Z,15.71
2023-05-12T20:09:50.596Z,15.70
2023-05-12T20:12:53.140Z,15.65
2023-05-12T20:15:56.062Z,15.63
2023-05-12T20:19:02.503Z,15.63
2023-05-12T20:22:06.214Z,15.62
2023-05-12T20:25:14.295Z,15.60
2023-05-12T20:28:16.827Z,15.58
2023-05-12T20:31:19.968Z,15.56
2023-05-12T20:34:24.038Z,15.55
2023-05-12T20:37:27.349Z,15.57
2023-05-12T20:40:29.902Z,15.55
2023-05-12T20:43:32.425Z,15.43
2023-05-12T20:46:37.911Z,15.40
2023-05-12T20:49:42.766Z,15.31
2023-05-12T20:52:46.190Z,15.25
2023-05-12T20:55:48.679Z,15.19
2023-05-12T20:58:51.301Z,15.17
2023-05-12T21:01:54.448Z,15.11
2023-05-12T21:04:58.429Z,15.07
2023-05-12T21:08:01.082Z,15.04
2023-05-12T21:11:03.592Z,14.98
2023-05-12T21:14:06.175Z,14.90
2023-05-12T21:17:09.972Z,14.88
2023-05-12T21:20:14.229Z,14.87
2023-05-12T21:23:16.788Z,14.77
2023-05-12T21:26:19.315Z,14.69
2023-05-12T21:29:21.938Z,14.59
2023-05-12T21:32:24.656Z,14.47
2023-05-12T21:35:28.873Z,14.32
2023-05-12T21:38:31.919Z,14.23
2023-05-12T21:41:34.484Z,14.16
2023-05-12T21:44:36.914Z,14.16
2023-05-12T21:47:39.578Z,14.24
2023-05-12T21:50:43.950Z,14.25
2023-05-12T21:53:46.433Z,14.24
2023-05-12T21:56:49.057Z,14.33
2023-05-12T21:59:51.959Z,14.47
2023-05-12T22:02:54.462Z,14.53
2023-05-12T22:05:58.323Z,14.62
2023-05-12T22:09:00.922Z,14.68
2023-05-12T22:12:03.543Z,14.75
2023-05-12T22:15:06.873Z,14.80
2023-05-12T22:18:09.514Z,14.79
2023-05-12T22:21:13.678Z,14.78
2023-05-12T22:24:16.154Z,14.77
2023-05-12T22:27:21.993Z,14.78
2023-05-12T22:30:24.733Z,14.82
2023-05-12T22:33:27.434Z,14.83
2023-05-12T22:36:31.298Z,14.83
2023-05-12T22:39:33.811Z,14.83
2023-05-12T22:42:36.514Z,14.79
2023-05-12T22:45:39.088Z,14.74
2023-05-12T22:48:41.941Z,14.74
2023-05-12T22:51:45.946Z,14.76
2023-05-12T22:54:48.474Z,14.75
2023-05-12T22:57:51.252Z,14.76
2023-05-12T23:00:54.110Z,14.76
2023-05-12T23:03:56.773Z,14.72
2023-05-12T23:07:00.692Z,14.71
2023-05-12T23:10:03.212Z,14.61
2023-05-12T23:13:05.749Z,14.58
2023-05-12T23:16:08.822Z,14.49
2023-05-12T23:19:11.451Z,14.42
2023-05-12T23:22:15.434Z,14.36
2023-05-12T23:25:17.953Z,14.37
2023-05-12T23:28:20.509Z,14.22
2023-05-12T23:31:23.053Z,14.18
2023-05-12T23:34:25.611Z,14.14
2023-05-12T23:37:29.459Z,14.17
2023-05-12T23:40:33.381Z,14.28
2023-05-12T23:43:36.016Z,14.39
2023-05-12T23:46:38.574Z,14.42
2023-05-12T23:49:41.230Z,14.47
2023-05-12T23:52:45.275Z,14.46
2023-05-12T23:55:47.766Z,14.46
2023-05-12T23:58:50.281Z,14.46
